sensor_id;sensor_type;location;lat;lon;timestamp;pressure;altitude;pressure_sealevel;temperature;humidity
41712;BME280;27399;51.516;13.670;2023-05-21T00:02:03;100815.84;;;17.26;82.99
41712;BME280;27399;51.516;13.670;2023-05-21T00:04:29;100817.63;;;17.26;82.85
41712;BME280;27399;51.516;13.670;2023-05-21T00:06:58;100813.56;;;17.12;83.51
41712;BME280;27399;51.516;13.670;2023-05-21T00:09:24;100810.03;;;17.10;83.38
41712;BME280;27399;51.516;13.670;2023-05-21T00:11:50;100806.28;;;17.14;83.46
41712;BME280;27399;51.516;13.670;2023-05-21T00:14:15;100797.41;;;17.12;82.85
41712;BME280;27399;51.516;13.670;2023-05-21T00:16:41;100805.00;;;16.98;83.85
41712;BME280;27399;51.516;13.670;2023-05-21T00:19:07;100800.47;;;17.00;83.75
41712;BME280;27399;51.516;13.670;2023-05-21T00:21:34;100791.44;;;17.01;83.28
41712;BME280;27399;51.516;13.670;2023-05-21T00:24:00;100783.44;;;16.98;82.96
41712;BME280;27399;51.516;13.670;2023-05-21T00:26:25;100784.78;;;16.81;83.18
41712;BME280;27399;51.516;13.670;2023-05-21T00:28:51;100786.44;;;16.85;83.39
41712;BME280;27399;51.516;13.670;2023-05-21T00:31:17;100782.91;;;16.85;83.65
41712;BME280;27399;51.516;13.670;2023-05-21T00:33:43;100782.13;;;16.80;83.71
41712;BME280;27399;51.516;13.670;2023-05-21T00:36:08;100783.94;;;16.79;83.60
41712;BME280;27399;51.516;13.670;2023-05-21T00:38:39;100771.41;;;16.78;83.63
41712;BME280;27399;51.516;13.670;2023-05-21T00:41:08;100772.34;;;16.77;83.86
41712;BME280;27399;51.516;13.670;2023-05-21T00:43:35;100773.19;;;16.79;83.62
41712;BME280;27399;51.516;13.670;2023-05-21T00:46:05;100766.88;;;16.80;83.21
41712;BME280;27399;51.516;13.670;2023-05-21T00:48:31;100771.50;;;16.75;83.77
41712;BME280;27399;51.516;13.670;2023-05-21T00:50:57;100766.09;;;16.75;83.77
41712;BME280;27399;51.516;13.670;2023-05-21T00:53:23;100769.19;;;16.61;83.72
41712;BME280;27399;51.516;13.670;2023-05-21T00:55:49;100767.38;;;16.62;83.94
41712;BME280;27399;51.516;13.670;2023-05-21T00:58:15;100766.38;;;16.66;83.41
41712;BME280;27399;51.516;13.670;2023-05-21T01:00:42;100765.56;;;16.62;83.65
41712;BME280;27399;51.516;13.670;2023-05-21T01:03:08;100762.81;;;16.65;83.71
41712;BME280;27399;51.516;13.670;2023-05-21T01:05:35;100763.16;;;16.53;84.41
41712;BME280;27399;51.516;13.670;2023-05-21T01:08:01;100768.47;;;16.54;84.27
41712;BME280;27399;51.516;13.670;2023-05-21T01:10:27;100754.16;;;16.52;84.54
41712;BME280;27399;51.516;13.670;2023-05-21T01:12:57;100753.13;;;16.58;84.13
41712;BME280;27399;51.516;13.670;2023-05-21T01:15:23;100751.34;;;16.57;84.20
41712;BME280;27399;51.516;13.670;2023-05-21T01:17:50;100741.47;;;16.57;84.34
41712;BME280;27399;51.516;13.670;2023-05-21T01:20:16;100746.00;;;16.55;84.29
41712;BME280;27399;51.516;13.670;2023-05-21T01:23:01;100745.16;;;16.53;84.24
41712;BME280;27399;51.516;13.670;2023-05-21T01:25:27;100743.41;;;16.52;84.39
41712;BME280;27399;51.516;13.670;2023-05-21T01:27:53;100736.38;;;16.47;84.36
41712;BME280;27399;51.516;13.670;2023-05-21T01:30:20;100740.69;;;16.54;84.19
41712;BME280;27399;51.516;13.670;2023-05-21T01:33:24;100738.72;;;16.59;84.16
41712;BME280;27399;51.516;13.670;2023-05-21T01:36:03;100734.50;;;16.50;84.25
41712;BME280;27399;51.516;13.670;2023-05-21T01:38:41;100733.59;;;16.50;84.58
41712;BME280;27399;51.516;13.670;2023-05-21T01:41:12;100740.91;;;16.46;84.42
41712;BME280;27399;51.516;13.670;2023-05-21T01:43:43;100738.19;;;16.46;84.68
41712;BME280;27399;51.516;13.670;2023-05-21T01:46:13;100740.38;;;16.32;84.97
41712;BME280;27399;51.516;13.670;2023-05-21T01:48:42;100738.38;;;16.40;84.70
41712;BME280;27399;51.516;13.670;2023-05-21T01:51:08;100730.47;;;16.34;85.07
41712;BME280;27399;51.516;13.670;2023-05-21T01:53:34;100735.78;;;16.37;84.95
41712;BME280;27399;51.516;13.670;2023-05-21T01:56:00;100736.75;;;16.33;85.01
41712;BME280;27399;51.516;13.670;2023-05-21T01:58:27;100726.91;;;16.32;84.97
41712;BME280;27399;51.516;13.670;2023-05-21T02:00:52;100733.16;;;16.34;85.09
41712;BME280;27399;51.516;13.670;2023-05-21T02:03:19;100733.34;;;16.27;85.19
41712;BME280;27399;51.516;13.670;2023-05-21T02:05:45;100742.34;;;16.26;85.29
41712;BME280;27399;51.516;13.670;2023-05-21T02:08:12;100737.81;;;16.27;85.06
41712;BME280;27399;51.516;13.670;2023-05-21T02:10:39;100734.50;;;16.17;85.29
41712;BME280;27399;51.516;13.670;2023-05-21T02:13:05;100730.78;;;16.23;85.34
41712;BME280;27399;51.516;13.670;2023-05-21T02:15:33;100737.06;;;16.22;85.06
41712;BME280;27399;51.516;13.670;2023-05-21T02:17:59;100732.44;;;16.27;84.88
41712;BME280;27399;51.516;13.670;2023-05-21T02:20:25;100731.03;;;16.14;85.63
41712;BME280;27399;51.516;13.670;2023-05-21T02:22:50;100728.91;;;16.25;85.00
41712;BME280;27399;51.516;13.670;2023-05-21T02:25:17;100721.78;;;16.22;85.03
41712;BME280;27399;51.516;13.670;2023-05-21T02:27:44;100725.53;;;16.17;84.92
41712;BME280;27399;51.516;13.670;2023-05-21T02:30:12;100719.28;;;16.16;85.17
41712;BME280;27399;51.516;13.670;2023-05-21T02:32:39;100721.84;;;16.21;85.38
41712;BME280;27399;51.516;13.670;2023-05-21T02:35:08;100723.75;;;16.17;85.46
41712;BME280;27399;51.516;13.670;2023-05-21T02:37:34;100719.22;;;16.18;85.13
41712;BME280;27399;51.516;13.670;2023-05-21T02:40:01;100719.19;;;16.19;84.77
41712;BME280;27399;51.516;13.670;2023-05-21T02:42:28;100721.31;;;16.08;85.44
41712;BME280;27399;51.516;13.670;2023-05-21T02:44:54;100713.09;;;16.13;84.96
41712;BME280;27399;51.516;13.670;2023-05-21T02:47:20;100719.84;;;15.94;86.83
41712;BME280;27399;51.516;13.670;2023-05-21T02:49:49;100718.72;;;16.03;85.96
41712;BME280;27399;51.516;13.670;2023-05-21T02:52:15;100710.69;;;16.02;85.54
41712;BME280;27399;51.516;13.670;2023-05-21T02:54:43;100710.09;;;15.90;86.35
41712;BME280;27399;51.516;13.670;2023-05-21T02:57:09;100716.00;;;16.05;85.24
41712;BME280;27399;51.516;13.670;2023-05-21T02:59:35;100711.47;;;16.05;85.89
41712;BME280;27399;51.516;13.670;2023-05-21T03:02:00;100706.59;;;15.87;86.22
41712;BME280;27399;51.516;13.670;2023-05-21T03:04:26;100701.88;;;15.97;86.11
41712;BME280;27399;51.516;13.670;2023-05-21T03:06:53;100699.06;;;16.01;85.67
41712;BME280;27399;51.516;13.670;2023-05-21T03:09:20;100703.72;;;15.94;85.63
41712;BME280;27399;51.516;13.670;2023-05-21T03:11:46;100704.56;;;15.97;85.86
41712;BME280;27399;51.516;13.670;2023-05-21T03:14:12;100707.50;;;15.87;86.00
41712;BME280;27399;51.516;13.670;2023-05-21T03:16:38;100710.28;;;15.81;85.99
41712;BME280;27399;51.516;13.670;2023-05-21T03:19:09;100701.34;;;15.80;85.99
41712;BME280;27399;51.516;13.670;2023-05-21T03:21:36;100711.22;;;15.80;86.22
41712;BME280;27399;51.516;13.670;2023-05-21T03:24:03;100700.47;;;15.80;85.77
41712;BME280;27399;51.516;13.670;2023-05-21T03:26:29;100711.16;;;15.83;86.37
41712;BME280;27399;51.516;13.670;2023-05-21T03:28:55;100720.19;;;15.79;85.88
41712;BME280;27399;51.516;13.670;2023-05-21T03:31:22;100715.59;;;15.86;85.58
41712;BME280;27399;51.516;13.670;2023-05-21T03:33:47;100705.28;;;15.67;86.40
41712;BME280;27399;51.516;13.670;2023-05-21T03:36:13;100705.00;;;15.78;86.09
41712;BME280;27399;51.516;13.670;2023-05-21T03:38:39;100691.53;;;15.78;85.90
41712;BME280;27399;51.516;13.670;2023-05-21T03:41:07;100703.97;;;15.85;86.29
41712;BME280;27399;51.516;13.670;2023-05-21T03:43:34;100707.56;;;15.84;86.22
41712;BME280;27399;51.516;13.670;2023-05-21T03:46:00;100702.06;;;15.89;86.25
41712;BME280;27399;51.516;13.670;2023-05-21T03:48:25;100705.63;;;15.89;86.18
41712;BME280;27399;51.516;13.670;2023-05-21T03:50:51;100708.19;;;15.94;86.21
41712;BME280;27399;51.516;13.670;2023-05-21T03:53:16;100701.03;;;15.93;86.54
41712;BME280;27399;51.516;13.670;2023-05-21T03:55:42;100700.09;;;15.95;86.27
41712;BME280;27399;51.516;13.670;2023-05-21T03:58:08;100699.97;;;16.00;86.54
41712;BME280;27399;51.516;13.670;2023-05-21T04:00:36;100706.28;;;15.99;86.71
41712;BME280;27399;51.516;13.670;2023-05-21T04:03:04;100703.28;;;16.10;86.99
41712;BME280;27399;51.516;13.670;2023-05-21T04:05:31;100703.22;;;16.13;87.16
41712;BME280;27399;51.516;13.670;2023-05-21T04:07:58;100698.16;;;16.01;87.47
41712;BME280;27399;51.516;13.670;2023-05-21T04:10:25;100716.53;;;16.18;87.49
41712;BME280;27399;51.516;13.670;2023-05-21T04:12:51;100716.41;;;16.22;87.42
41712;BME280;27399;51.516;13.670;2023-05-21T04:15:19;100711.22;;;16.15;87.70
41712;BME280;27399;51.516;13.670;2023-05-21T04:17:45;100715.41;;;16.26;87.58
41712;BME280;27399;51.516;13.670;2023-05-21T04:20:14;100717.78;;;16.39;87.44
41712;BME280;27399;51.516;13.670;2023-05-21T04:22:41;100716.22;;;16.30;87.66
41712;BME280;27399;51.516;13.670;2023-05-21T04:25:07;100711.47;;;16.40;87.48
41712;BME280;27399;51.516;13.670;2023-05-21T04:27:34;100715.09;;;16.39;87.72
41712;BME280;27399;51.516;13.670;2023-05-21T04:30:03;100716.66;;;16.46;87.72
41712;BME280;27399;51.516;13.670;2023-05-21T04:32:29;100707.94;;;16.38;88.41
41712;BME280;27399;51.516;13.670;2023-05-21T04:34:56;100709.31;;;16.51;87.58
41712;BME280;27399;51.516;13.670;2023-05-21T04:37:22;100711.84;;;16.57;88.10
41712;BME280;27399;51.516;13.670;2023-05-21T04:39:50;100705.56;;;16.58;88.36
41712;BME280;27399;51.516;13.670;2023-05-21T04:42:16;100706.41;;;16.61;88.01
41712;BME280;27399;51.516;13.670;2023-05-21T04:44:43;100703.56;;;16.65;88.02
41712;BME280;27399;51.516;13.670;2023-05-21T04:47:09;100709.09;;;16.61;88.43
41712;BME280;27399;51.516;13.670;2023-05-21T04:49:36;100712.28;;;16.73;88.19
41712;BME280;27399;51.516;13.670;2023-05-21T04:52:02;100682.25;;;16.57;88.19
41712;BME280;27399;51.516;13.670;2023-05-21T04:54:28;100715.84;;;16.74;88.41
41712;BME280;27399;51.516;13.670;2023-05-21T04:56:53;100713.69;;;16.87;87.92
41712;BME280;27399;51.516;13.670;2023-05-21T04:59:19;100712.84;;;16.85;88.34
41712;BME280;27399;51.516;13.670;2023-05-21T05:01:45;100721.81;;;16.85;88.50
41712;BME280;27399;51.516;13.670;2023-05-21T05:04:11;100708.25;;;16.88;88.47
41712;BME280;27399;51.516;13.670;2023-05-21T05:06:37;100718.03;;;16.93;88.15
41712;BME280;27399;51.516;13.670;2023-05-21T05:09:02;100722.38;;;16.98;88.24
41712;BME280;27399;51.516;13.670;2023-05-21T05:11:29;100704.31;;;17.02;88.03
41712;BME280;27399;51.516;13.670;2023-05-21T05:13:54;100717.47;;;17.11;87.85
41712;BME280;27399;51.516;13.670;2023-05-21T05:16:20;100719.25;;;17.12;87.83
41712;BME280;27399;51.516;13.670;2023-05-21T05:18:52;100712.09;;;17.11;88.19
41712;BME280;27399;51.516;13.670;2023-05-21T05:21:19;100701.88;;;17.21;87.67
41712;BME280;27399;51.516;13.670;2023-05-21T05:23:44;100713.59;;;17.20;88.23
41712;BME280;27399;51.516;13.670;2023-05-21T05:26:10;100713.06;;;17.37;88.00
41712;BME280;27399;51.516;13.670;2023-05-21T05:28:36;100722.84;;;17.41;88.09
41712;BME280;27399;51.516;13.670;2023-05-21T05:31:01;100714.53;;;17.47;88.25
41712;BME280;27399;51.516;13.670;2023-05-21T05:33:27;100717.13;;;17.50;88.11
41712;BME280;27399;51.516;13.670;2023-05-21T05:35:53;100707.81;;;17.61;88.43
41712;BME280;27399;51.516;13.670;2023-05-21T05:38:18;100713.41;;;17.55;89.09
41712;BME280;27399;51.516;13.670;2023-05-21T05:40:44;100703.78;;;17.74;88.34
41712;BME280;27399;51.516;13.670;2023-05-21T05:43:10;100721.41;;;17.85;89.01
41712;BME280;27399;51.516;13.670;2023-05-21T05:45:35;100711.88;;;18.01;88.82
41712;BME280;27399;51.516;13.670;2023-05-21T05:48:01;100713.72;;;17.99;89.16
41712;BME280;27399;51.516;13.670;2023-05-21T05:50:27;100714.03;;;18.17;88.92
41712;BME280;27399;51.516;13.670;2023-05-21T05:52:52;100714.28;;;18.36;87.68
41712;BME280;27399;51.516;13.670;2023-05-21T05:55:18;100716.63;;;18.45;87.61
41712;BME280;27399;51.516;13.670;2023-05-21T05:57:44;100720.75;;;18.55;87.88
41712;BME280;27399;51.516;13.670;2023-05-21T06:00:10;100719.03;;;18.53;86.82
41712;BME280;27399;51.516;13.670;2023-05-21T06:02:35;100714.22;;;18.85;86.09
41712;BME280;27399;51.516;13.670;2023-05-21T06:05:02;100705.59;;;19.00;85.87
41712;BME280;27399;51.516;13.670;2023-05-21T06:07:28;100711.66;;;19.05;85.56
41712;BME280;27399;51.516;13.670;2023-05-21T06:09:54;100706.78;;;19.15;85.72
41712;BME280;27399;51.516;13.670;2023-05-21T06:12:19;100713.41;;;19.30;85.27
41712;BME280;27399;51.516;13.670;2023-05-21T06:14:45;100704.72;;;19.44;84.05
41712;BME280;27399;51.516;13.670;2023-05-21T06:17:13;100704.59;;;19.47;83.27
41712;BME280;27399;51.516;13.670;2023-05-21T06:19:38;100707.72;;;19.81;83.45
41712;BME280;27399;51.516;13.670;2023-05-21T06:22:04;100705.19;;;19.76;83.03
41712;BME280;27399;51.516;13.670;2023-05-21T06:24:30;100700.34;;;19.85;82.73
41712;BME280;27399;51.516;13.670;2023-05-21T06:26:55;100700.34;;;20.07;83.05
41712;BME280;27399;51.516;13.670;2023-05-21T06:29:21;100700.78;;;20.17;81.78
41712;BME280;27399;51.516;13.670;2023-05-21T06:31:47;100690.75;;;20.00;82.12
41712;BME280;27399;51.516;13.670;2023-05-21T06:34:13;100693.38;;;20.22;82.50
41712;BME280;27399;51.516;13.670;2023-05-21T06:36:39;100702.75;;;20.34;80.93
41712;BME280;27399;51.516;13.670;2023-05-21T06:39:05;100691.25;;;20.49;80.76
41712;BME280;27399;51.516;13.670;2023-05-21T06:41:31;100694.03;;;20.67;80.63
41712;BME280;27399;51.516;13.670;2023-05-21T06:47:17;100688.00;;;20.81;79.54
41712;BME280;27399;51.516;13.670;2023-05-21T06:49:43;100688.97;;;20.99;80.15
41712;BME280;27399;51.516;13.670;2023-05-21T06:52:09;100691.81;;;21.15;80.05
41712;BME280;27399;51.516;13.670;2023-05-21T06:54:35;100693.00;;;21.09;80.28
41712;BME280;27399;51.516;13.670;2023-05-21T06:57:01;100688.50;;;21.46;79.00
41712;BME280;27399;51.516;13.670;2023-05-21T06:59:26;100684.72;;;21.31;77.44
41712;BME280;27399;51.516;13.670;2023-05-21T07:01:52;100684.78;;;21.66;77.08
41712;BME280;27399;51.516;13.670;2023-05-21T07:04:17;100682.97;;;22.02;78.16
41712;BME280;27399;51.516;13.670;2023-05-21T07:06:43;100690.31;;;22.18;76.18
41712;BME280;27399;51.516;13.670;2023-05-21T07:09:09;100683.47;;;22.10;76.33
41712;BME280;27399;51.516;13.670;2023-05-21T07:11:34;100686.53;;;22.55;76.25
41712;BME280;27399;51.516;13.670;2023-05-21T07:14:00;100688.06;;;22.77;74.45
41712;BME280;27399;51.516;13.670;2023-05-21T07:16:26;100675.97;;;22.99;75.33
41712;BME280;27399;51.516;13.670;2023-05-21T07:18:52;100686.22;;;23.10;75.09
41712;BME280;27399;51.516;13.670;2023-05-21T07:21:17;100676.56;;;22.88;75.64
41712;BME280;27399;51.516;13.670;2023-05-21T07:23:43;100682.22;;;23.01;74.75
41712;BME280;27399;51.516;13.670;2023-05-21T07:26:09;100678.59;;;23.00;75.05
41712;BME280;27399;51.516;13.670;2023-05-21T07:28:36;100681.91;;;22.73;76.63
41712;BME280;27399;51.516;13.670;2023-05-21T07:31:01;100686.81;;;22.67;74.20
41712;BME280;27399;51.516;13.670;2023-05-21T07:33:27;100682.09;;;22.70;75.85
41712;BME280;27399;51.516;13.670;2023-05-21T07:35:53;100680.47;;;22.66;76.96
41712;BME280;27399;51.516;13.670;2023-05-21T07:38:18;100672.97;;;22.71;76.74
41712;BME280;27399;51.516;13.670;2023-05-21T07:40:44;100683.97;;;22.52;77.68
41712;BME280;27399;51.516;13.670;2023-05-21T07:43:11;100674.09;;;22.67;77.69
41712;BME280;27399;51.516;13.670;2023-05-21T07:45:37;100682.38;;;22.82;76.47
41712;BME280;27399;51.516;13.670;2023-05-21T07:48:03;100679.03;;;22.93;74.93
41712;BME280;27399;51.516;13.670;2023-05-21T07:50:28;100688.91;;;22.78;78.45
41712;BME280;27399;51.516;13.670;2023-05-21T07:52:54;100687.56;;;23.02;76.72
41712;BME280;27399;51.516;13.670;2023-05-21T07:55:19;100690.44;;;23.15;77.44
41712;BME280;27399;51.516;13.670;2023-05-21T07:57:45;100684.97;;;23.33;75.13
41712;BME280;27399;51.516;13.670;2023-05-21T08:00:11;100682.22;;;23.49;75.33
41712;BME280;27399;51.516;13.670;2023-05-21T08:02:39;100683.63;;;23.56;74.14
41712;BME280;27399;51.516;13.670;2023-05-21T08:05:05;100675.28;;;23.59;72.39
41712;BME280;27399;51.516;13.670;2023-05-21T08:07:31;100682.75;;;23.86;72.90
41712;BME280;27399;51.516;13.670;2023-05-21T08:09:57;100686.41;;;24.01;73.94
41712;BME280;27399;51.516;13.670;2023-05-21T08:12:23;100685.09;;;24.23;71.32
41712;BME280;27399;51.516;13.670;2023-05-21T08:14:49;100690.56;;;24.23;71.90
41712;BME280;27399;51.516;13.670;2023-05-21T08:17:15;100686.38;;;24.46;71.14
41712;BME280;27399;51.516;13.670;2023-05-21T08:19:41;100689.31;;;24.43;71.38
41712;BME280;27399;51.516;13.670;2023-05-21T08:22:06;100694.91;;;24.70;69.82
41712;BME280;27399;51.516;13.670;2023-05-21T08:24:32;100686.44;;;24.75;70.86
41712;BME280;27399;51.516;13.670;2023-05-21T08:26:58;100691.28;;;24.84;69.65
41712;BME280;27399;51.516;13.670;2023-05-21T08:29:24;100685.13;;;24.95;70.33
41712;BME280;27399;51.516;13.670;2023-05-21T08:31:50;100684.34;;;24.93;69.62
41712;BME280;27399;51.516;13.670;2023-05-21T08:34:15;100684.81;;;25.14;70.25
41712;BME280;27399;51.516;13.670;2023-05-21T08:36:42;100683.06;;;24.99;69.63
41712;BME280;27399;51.516;13.670;2023-05-21T08:39:10;100682.78;;;25.03;68.98
41712;BME280;27399;51.516;13.670;2023-05-21T08:41:37;100680.09;;;24.89;71.50
41712;BME280;27399;51.516;13.670;2023-05-21T08:44:07;100682.03;;;24.72;69.43
41712;BME280;27399;51.516;13.670;2023-05-21T08:46:34;100679.56;;;24.68;70.32
41712;BME280;27399;51.516;13.670;2023-05-21T08:49:01;100675.72;;;24.72;71.21
41712;BME280;27399;51.516;13.670;2023-05-21T08:51:28;100672.34;;;24.67;71.90
41712;BME280;27399;51.516;13.670;2023-05-21T08:53:54;100674.13;;;24.53;73.23
41712;BME280;27399;51.516;13.670;2023-05-21T08:56:21;100675.38;;;24.62;71.93
41712;BME280;27399;51.516;13.670;2023-05-21T08:58:47;100681.16;;;24.72;71.30
41712;BME280;27399;51.516;13.670;2023-05-21T09:01:13;100675.09;;;24.52;70.26
41712;BME280;27399;51.516;13.670;2023-05-21T09:03:39;100671.84;;;24.76;71.10
41712;BME280;27399;51.516;13.670;2023-05-21T09:06:12;100674.34;;;24.94;69.98
41712;BME280;27399;51.516;13.670;2023-05-21T09:08:44;100664.69;;;25.02;70.54
41712;BME280;27399;51.516;13.670;2023-05-21T09:11:11;100673.72;;;25.03;70.83
41712;BME280;27399;51.516;13.670;2023-05-21T09:13:39;100663.78;;;25.02;70.34
41712;BME280;27399;51.516;13.670;2023-05-21T09:16:06;100673.84;;;25.01;69.83
41712;BME280;27399;51.516;13.670;2023-05-21T09:18:33;100683.28;;;24.96;69.87
41712;BME280;27399;51.516;13.670;2023-05-21T09:21:22;100676.28;;;24.91;69.13
41712;BME280;27399;51.516;13.670;2023-05-21T09:23:58;100677.84;;;24.96;70.78
41712;BME280;27399;51.516;13.670;2023-05-21T09:26:25;100677.84;;;24.96;71.21
41712;BME280;27399;51.516;13.670;2023-05-21T09:28:51;100679.75;;;25.08;70.00
41712;BME280;27399;51.516;13.670;2023-05-21T09:31:22;100679.97;;;25.05;70.34
41712;BME280;27399;51.516;13.670;2023-05-21T09:33:48;100678.44;;;25.28;69.99
41712;BME280;27399;51.516;13.670;2023-05-21T09:36:17;100684.16;;;25.38;67.85
41712;BME280;27399;51.516;13.670;2023-05-21T09:38:44;100668.34;;;25.71;67.91
41712;BME280;27399;51.516;13.670;2023-05-21T09:41:10;100679.22;;;25.85;68.45
41712;BME280;27399;51.516;13.670;2023-05-21T09:43:36;100679.13;;;25.99;68.35
41712;BME280;27399;51.516;13.670;2023-05-21T09:46:02;100669.75;;;26.04;67.99
41712;BME280;27399;51.516;13.670;2023-05-21T09:48:38;100677.00;;;26.18;67.61
41712;BME280;27399;51.516;13.670;2023-05-21T09:53:57;100670.88;;;26.27;64.99
41712;BME280;27399;51.516;13.670;2023-05-21T09:56:25;100673.84;;;26.37;65.89
41712;BME280;27399;51.516;13.670;2023-05-21T09:58:55;100673.06;;;26.73;65.52
41712;BME280;27399;51.516;13.670;2023-05-21T10:01:22;100667.47;;;26.62;65.34
41712;BME280;27399;51.516;13.670;2023-05-21T10:03:59;100682.03;;;26.88;64.67
41712;BME280;27399;51.516;13.670;2023-05-21T10:06:30;100669.50;;;27.10;64.91
41712;BME280;27399;51.516;13.670;2023-05-21T10:09:01;100661.06;;;27.37;64.92
41712;BME280;27399;51.516;13.670;2023-05-21T10:11:30;100652.09;;;27.35;62.89
41712;BME280;27399;51.516;13.670;2023-05-21T10:14:18;100661.22;;;27.23;61.31
41712;BME280;27399;51.516;13.670;2023-05-21T10:16:46;100646.69;;;27.71;62.34
41712;BME280;27399;51.516;13.670;2023-05-21T10:19:12;100653.81;;;27.85;63.54
41712;BME280;27399;51.516;13.670;2023-05-21T10:21:40;100649.19;;;27.74;61.75
41712;BME280;27399;51.516;13.670;2023-05-21T10:24:08;100649.84;;;27.89;62.15
41712;BME280;27399;51.516;13.670;2023-05-21T10:26:34;100635.16;;;27.90;62.01
41712;BME280;27399;51.516;13.670;2023-05-21T10:29:01;100640.88;;;27.87;61.72
41712;BME280;27399;51.516;13.670;2023-05-21T10:31:27;100641.34;;;27.70;62.05
41712;BME280;27399;51.516;13.670;2023-05-21T10:33:54;100633.34;;;27.42;61.03
41712;BME280;27399;51.516;13.670;2023-05-21T10:36:20;100635.19;;;27.55;60.86
41712;BME280;27399;51.516;13.670;2023-05-21T10:38:48;100644.06;;;27.70;60.50
41712;BME280;27399;51.516;13.670;2023-05-21T10:41:17;100634.53;;;27.87;60.35
41712;BME280;27399;51.516;13.670;2023-05-21T11:01:51;100632.25;;;28.16;59.10
41712;BME280;27399;51.516;13.670;2023-05-21T11:04:27;100626.72;;;28.05;58.12
41712;BME280;27399;51.516;13.670;2023-05-21T11:06:53;100629.28;;;28.42;59.23
41712;BME280;27399;51.516;13.670;2023-05-21T11:09:18;100628.78;;;28.37;59.15
41712;BME280;27399;51.516;13.670;2023-05-21T11:11:48;100622.56;;;28.35;57.99
41712;BME280;27399;51.516;13.670;2023-05-21T11:16:52;100629.56;;;28.73;60.23
41712;BME280;27399;51.516;13.670;2023-05-21T11:19:18;100625.91;;;28.84;59.60
41712;BME280;27399;51.516;13.670;2023-05-21T11:21:49;100616.22;;;29.23;57.77
41712;BME280;27399;51.516;13.670;2023-05-21T11:24:19;100619.72;;;29.37;57.97
41712;BME280;27399;51.516;13.670;2023-05-21T11:29:14;100615.63;;;30.06;57.60
41712;BME280;27399;51.516;13.670;2023-05-21T11:31:47;100616.13;;;30.42;56.27
41712;BME280;27399;51.516;13.670;2023-05-21T11:34:23;100611.78;;;30.50;55.62
41712;BME280;27399;51.516;13.670;2023-05-21T11:39:50;100599.72;;;29.89;54.68
41712;BME280;27399;51.516;13.670;2023-05-21T11:44:56;100606.94;;;30.01;55.87
41712;BME280;27399;51.516;13.670;2023-05-21T11:47:24;100607.16;;;29.77;56.90
41712;BME280;27399;51.516;13.670;2023-05-21T11:49:51;100593.59;;;29.96;55.23
41712;BME280;27399;51.516;13.670;2023-05-21T11:52:16;100599.44;;;29.71;55.14
41712;BME280;27399;51.516;13.670;2023-05-21T11:54:51;100582.22;;;29.47;54.35
41712;BME280;27399;51.516;13.670;2023-05-21T11:57:20;100597.59;;;29.71;55.90
41712;BME280;27399;51.516;13.670;2023-05-21T11:59:47;100587.84;;;29.67;55.20
41712;BME280;27399;51.516;13.670;2023-05-21T12:02:15;100601.22;;;29.39;55.68
41712;BME280;27399;51.516;13.670;2023-05-21T12:04:41;100600.22;;;29.40;56.14
41712;BME280;27399;51.516;13.670;2023-05-21T12:07:10;100600.22;;;29.40;56.85
41712;BME280;27399;51.516;13.670;2023-05-21T12:09:40;100599.50;;;29.38;55.38
41712;BME280;27399;51.516;13.670;2023-05-21T12:12:14;100603.66;;;29.10;56.31
41712;BME280;27399;51.516;13.670;2023-05-21T12:14:43;100599.75;;;29.35;55.96
41712;BME280;27399;51.516;13.670;2023-05-21T12:17:10;100599.88;;;29.33;55.74
41712;BME280;27399;51.516;13.670;2023-05-21T12:19:38;100598.34;;;28.97;53.19
41712;BME280;27399;51.516;13.670;2023-05-21T12:22:07;100593.50;;;29.33;54.44
41712;BME280;27399;51.516;13.670;2023-05-21T12:24:34;100589.75;;;29.22;52.45
41712;BME280;27399;51.516;13.670;2023-05-21T12:27:02;100586.00;;;29.35;53.58
41712;BME280;27399;51.516;13.670;2023-05-21T12:29:35;100594.75;;;29.29;52.41
41712;BME280;27399;51.516;13.670;2023-05-21T12:32:03;100587.63;;;29.26;51.42
41712;BME280;27399;51.516;13.670;2023-05-21T12:34:41;100594.47;;;29.43;52.41
41712;BME280;27399;51.516;13.670;2023-05-21T12:37:11;100583.00;;;29.38;51.60
41712;BME280;27399;51.516;13.670;2023-05-21T12:39:38;100587.31;;;29.19;51.64
41712;BME280;27399;51.516;13.670;2023-05-21T12:42:05;100585.41;;;29.52;53.02
41712;BME280;27399;51.516;13.670;2023-05-21T12:44:31;100586.72;;;29.69;53.64
41712;BME280;27399;51.516;13.670;2023-05-21T12:46:57;100584.59;;;29.73;52.89
41712;BME280;27399;51.516;13.670;2023-05-21T12:49:37;100584.91;;;29.59;53.00
41712;BME280;27399;51.516;13.670;2023-05-21T12:52:07;100587.44;;;29.50;54.17
41712;BME280;27399;51.516;13.670;2023-05-21T12:54:34;100583.47;;;29.32;53.35
41712;BME280;27399;51.516;13.670;2023-05-21T12:57:35;100581.47;;;29.45;53.94
41712;BME280;27399;51.516;13.670;2023-05-21T13:00:04;100577.38;;;29.28;53.95
41712;BME280;27399;51.516;13.670;2023-05-21T13:02:41;100578.47;;;29.48;54.26
41712;BME280;27399;51.516;13.670;2023-05-21T13:05:09;100568.34;;;29.49;55.32
41712;BME280;27399;51.516;13.670;2023-05-21T13:07:37;100570.72;;;29.42;54.03
41712;BME280;27399;51.516;13.670;2023-05-21T13:10:03;100573.69;;;28.74;53.67
41712;BME280;27399;51.516;13.670;2023-05-21T13:12:31;100558.34;;;29.15;53.94
41712;BME280;27399;51.516;13.670;2023-05-21T13:14:58;100565.00;;;29.01;55.68
41712;BME280;27399;51.516;13.670;2023-05-21T13:17:25;100559.56;;;28.90;53.94